Norwegian Jade — C6WK7 — position and weather

sailwx.info

Track history (hours):
 
Tides and Currents Weather Stations Pressure Air Temp Water Temp Dewpoint Dewpoint Depression Visibility Wind Speed Wind Dir Waves Ship Positions

Norwegian Jade

Last reported at 2017-Mar-30 04:29 UTC. Time now 2017-Mar-30 04:55 UTC.
Position N 27°15' W 083°11'.

Length 294 m; draft 8.6 m.

Type: Passenger vessel. MMSI: 308416000.

Date/timePositionNaut miles runAvg speedWind from/ knotsBaromVisibWave heightAir tempDewpointWater temp
2017-Mar-30 04:29N 27°15' W 083°11'1112.0
2017-Mar-30 03:33N 27°04' W 083°11'1119.4
2017-Mar-30 03:00N 26°54' W 083°06'1313.1 060 / 81018.010.8 22.1 25.0
2017-Mar-30 02:00N 26°42' W 083°12'1212.0 060 / 41018.0 22.3 26.0
2017-Mar-30 01:00N 26°30' W 083°12'1610.1 180 / 11018.0 22.7 26.0
2017-Mar-29 23:24N 26°14' W 083°12'1112.0
2017-Mar-29 22:32N 26°03' W 083°13'3818.8
2017-Mar-29 20:32N 25°26' W 083°13'9514.5
2017-Mar-29 14:00N 23°54' W 082°48'3913.0 130 / 131016.0 26.0 25.0
2017-Mar-29 11:00N 23°48' W 082°06'1616.5 100 / 151015.010.8 23.0 25.0
2017-Mar-29 10:00N 23°48' W 081°48'15215.6 120 / 151015.010.8 23.0 25.0
2017-Mar-29 00:12N 25°23' W 079°38'1116.4
2017-Mar-28 23:33N 25°34' W 079°36'10 9.7
2017-Mar-28 22:33N 25°44' W 079°34'1615.9
2017-Mar-28 21:33N 25°59' W 079°28'9 9.3
2017-Mar-28 20:33N 26°06' W 079°22'  
Track history (hours):
 
Tides and Currents Weather Stations Pressure Air Temp Water Temp Dewpoint Dewpoint Depression Visibility Wind Speed Wind Dir Waves Ship Positions

Norwegian Jade

Last reported at 2017-Mar-30 04:29 UTC. Time now 2017-Mar-30 04:55 UTC.
Position N 27°15' W 083°11'.

Length 294 m; draft 8.6 m.

Type: Passenger vessel. MMSI: 308416000.

Date/timePositionNaut miles runAvg speedWind from/ knotsBaromVisibWave heightAir tempDewpointWater temp
2017-Mar-30 04:29N 27°15' W 083°11'1112.0
2017-Mar-30 03:33N 27°04' W 083°11'1119.4
2017-Mar-30 03:00N 26°54' W 083°06'1313.1 060 / 81018.010.8 22.1 25.0
2017-Mar-30 02:00N 26°42' W 083°12'1212.0 060 / 41018.0 22.3 26.0
2017-Mar-30 01:00N 26°30' W 083°12'1610.1 180 / 11018.0 22.7 26.0
2017-Mar-29 23:24N 26°14' W 083°12'1112.0
2017-Mar-29 22:32N 26°03' W 083°13'3818.8
2017-Mar-29 20:32N 25°26' W 083°13'9514.5
2017-Mar-29 14:00N 23°54' W 082°48'3913.0 130 / 131016.0 26.0 25.0
2017-Mar-29 11:00N 23°48' W 082°06'1616.5 100 / 151015.010.8 23.0 25.0
2017-Mar-29 10:00N 23°48' W 081°48'15215.6 120 / 151015.010.8 23.0 25.0
2017-Mar-29 00:12N 25°23' W 079°38'1116.4
2017-Mar-28 23:33N 25°34' W 079°36'10 9.7
2017-Mar-28 22:33N 25°44' W 079°34'1615.9
2017-Mar-28 21:33N 25°59' W 079°28'9 9.3
2017-Mar-28 20:33N 26°06' W 079°22'  

Dump ship's entire track history